createdAt,value
2023-01-04T00:02:03.996Z,92.70
2023-01-04T00:04:32.458Z,90.70
2023-01-04T00:07:00.710Z,69.50
2023-01-04T00:09:28.895Z,88.20
2023-01-04T00:11:56.994Z,88.70
2023-01-04T00:14:25.172Z,82.70
2023-01-04T00:16:54.690Z,87.50
2023-01-04T00:19:22.806Z,80.60
2023-01-04T00:21:51.020Z,87.70
2023-01-04T00:26:48.031Z,89.80
2023-01-04T00:29:16.205Z,86.70
2023-01-04T00:31:45.356Z,22.60
2023-01-04T00:34:18.253Z,24.30
2023-01-04T00:36:47.049Z,1.00
2023-01-04T00:39:17.468Z,11.40
2023-01-04T00:42:02.901Z,1.00
2023-01-04T00:44:32.005Z,1.00
2023-01-04T00:47:01.674Z,1.00
2023-01-04T00:49:32.404Z,1.00
2023-01-04T00:52:00.574Z,1.00
2023-01-04T00:54:29.594Z,1.00
2023-01-04T00:56:58.668Z,1.00
2023-01-04T00:59:26.818Z,1.00
2023-01-04T01:01:55.426Z,1.00
2023-01-04T01:04:25.193Z,1.00
2023-01-04T01:06:55.058Z,1.00
2023-01-04T01:09:23.813Z,1.00
2023-01-04T01:11:53.529Z,1.00
2023-01-04T01:14:25.581Z,1.00
2023-01-04T01:16:56.532Z,1.00
2023-01-04T01:19:26.706Z,1.00
2023-01-04T01:21:57.255Z,1.00
2023-01-04T01:24:25.597Z,1.00
2023-01-04T01:26:54.701Z,1.00
2023-01-04T01:29:22.933Z,1.00
2023-01-04T01:31:51.089Z,1.00
2023-01-04T01:34:19.261Z,1.00
2023-01-04T01:36:47.522Z,1.00
2023-01-04T01:39:17.039Z,1.00
2023-01-04T01:41:45.538Z,1.00
2023-01-04T01:45:01.291Z,1.00
2023-01-04T01:47:38.843Z,1.00
2023-01-04T01:50:17.770Z,1.00
2023-01-04T01:52:46.054Z,1.00
2023-01-04T01:55:17.833Z,1.00
2023-01-04T01:57:50.186Z,1.00
2023-01-04T02:00:19.137Z,1.00
2023-01-04T02:02:58.889Z,1.00
2023-01-04T02:05:30.041Z,1.00
2023-01-04T02:07:58.314Z,1.00
2023-01-04T02:10:28.176Z,1.00
2023-01-04T02:12:56.488Z,1.00
2023-01-04T02:15:29.748Z,1.00
2023-01-04T02:18:07.025Z,1.00
2023-01-04T02:20:45.758Z,1.00
2023-01-04T02:23:59.419Z,1.00
2023-01-04T02:26:56.489Z,1.00
2023-01-04T02:30:08.674Z,1.00
2023-01-04T02:33:02.810Z,1.00
2023-01-04T02:35:38.050Z,1.00
2023-01-04T02:38:16.608Z,1.00
2023-01-04T02:40:54.606Z,1.00
2023-01-04T02:43:50.046Z,1.00
2023-01-04T02:46:24.765Z,1.00
2023-01-04T02:49:11.630Z,1.00
2023-01-04T02:51:40.560Z,1.00
2023-01-04T02:54:13.945Z,7.10
2023-01-04T02:57:05.904Z,30.20
2023-01-04T03:00:02.688Z,49.70
2023-01-04T03:03:09.481Z,75.50
2023-01-04T03:06:09.383Z,34.40
2023-01-04T03:08:41.036Z,99.90
2023-01-04T03:11:26.773Z,99.90
2023-01-04T03:13:59.183Z,99.90
2023-01-04T03:16:28.341Z,99.90
2023-01-04T03:19:04.419Z,99.90
2023-01-04T03:21:34.343Z,99.90
2023-01-04T03:24:21.659Z,99.90
2023-01-04T03:27:11.636Z,99.90
2023-01-04T03:30:02.035Z,99.90
2023-01-04T03:32:56.048Z,99.90
2023-01-04T03:35:37.722Z,99.90
2023-01-04T03:38:30.656Z,99.90
2023-01-04T03:41:20.251Z,99.90
2023-01-04T03:44:20.536Z,99.90
2023-01-04T03:47:12.347Z,99.90
2023-01-04T03:49:48.606Z,99.90
2023-01-04T03:52:18.545Z,99.90
2023-01-04T03:54:51.004Z,99.90
2023-01-04T03:57:19.697Z,99.90
2023-01-04T03:59:54.184Z,99.90
2023-01-04T04:02:25.956Z,99.90
2023-01-04T04:05:11.684Z,99.90
2023-01-04T04:07:57.429Z,99.90
2023-01-04T04:10:26.906Z,99.90
2023-01-04T04:12:55.012Z,99.90
2023-01-04T04:15:23.185Z,99.90
2023-01-04T04:17:51.293Z,99.90
2023-01-04T04:20:20.662Z,99.90
2023-01-04T04:25:17.573Z,99.90
2023-01-04T04:27:47.071Z,99.90
2023-01-04T04:30:15.930Z,99.90
2023-01-04T04:32:44.569Z,99.90
2023-01-04T04:35:12.729Z,99.90
2023-01-04T04:37:40.888Z,99.90
2023-01-04T04:40:31.125Z,99.90
2023-01-04T04:42:59.647Z,99.90
2023-01-04T04:45:27.824Z,99.90
2023-01-04T04:47:55.947Z,99.90
2023-01-04T04:50:24.044Z,99.90
2023-01-04T04:52:55.959Z,99.90
2023-01-04T04:55:24.893Z,99.90
2023-01-04T04:57:53.077Z,99.90
2023-01-04T05:00:22.801Z,99.90
2023-01-04T05:05:19.793Z,99.90
2023-01-04T05:07:47.894Z,99.90
2023-01-04T05:10:16.099Z,99.90
2023-01-04T05:13:01.193Z,99.90
2023-01-04T05:15:34.999Z,99.90
2023-01-04T05:18:03.836Z,99.90
2023-01-04T05:20:32.429Z,99.90
2023-01-04T05:23:00.611Z,99.90
2023-01-04T05:25:29.131Z,99.90
2023-01-04T05:27:57.695Z,99.90
2023-01-04T05:30:43.617Z,99.90
2023-01-04T05:33:13.244Z,99.90
2023-01-04T05:35:41.458Z,99.90
2023-01-04T05:38:09.628Z,99.90
2023-01-04T05:43:06.322Z,99.90
2023-01-04T05:48:03.688Z,99.90
2023-01-04T05:50:33.552Z,99.90
2023-01-04T05:53:06.170Z,99.90
2023-01-04T05:55:34.943Z,99.90
2023-01-04T05:58:03.105Z,99.90
2023-01-04T06:00:31.588Z,99.90
2023-01-04T06:02:59.982Z,99.90
2023-01-04T06:05:28.635Z,99.90
2023-01-04T06:07:58.104Z,99.90
2023-01-04T06:10:26.251Z,99.90
2023-01-04T06:15:22.905Z,99.90
2023-01-04T06:17:51.319Z,99.90
2023-01-04T06:20:19.666Z,99.90
2023-01-04T06:22:47.818Z,99.90
2023-01-04T06:25:17.711Z,99.90
2023-01-04T06:27:46.017Z,99.90
2023-01-04T06:32:43.526Z,99.90
2023-01-04T06:35:11.682Z,99.90
2023-01-04T06:37:40.695Z,99.90
2023-01-04T06:40:11.033Z,99.90
2023-01-04T06:42:46.793Z,99.90
2023-01-04T06:45:16.540Z,99.90
2023-01-04T06:47:44.916Z,99.90
2023-01-04T06:50:13.769Z,99.90
2023-01-04T06:52:43.055Z,99.90
2023-01-04T06:55:11.579Z,99.90
2023-01-04T06:57:41.068Z,99.90
2023-01-04T07:00:11.781Z,99.90
2023-01-04T07:03:12.587Z,99.90
2023-01-04T07:05:28.397Z,99.90
2023-01-04T07:07:56.520Z,99.90
2023-01-04T07:10:24.695Z,99.90
2023-01-04T07:12:54.391Z,99.90
2023-01-04T07:15:39.316Z,99.90
2023-01-04T07:18:08.792Z,99.90
2023-01-04T07:23:06.637Z,99.90
2023-01-04T07:28:05.170Z,99.90
2023-01-04T07:30:33.615Z,99.90
2023-01-04T07:33:01.995Z,99.90
2023-01-04T07:35:30.226Z,99.90
2023-01-04T07:37:59.354Z,99.90
2023-01-04T07:40:28.815Z,99.90
2023-01-04T07:42:58.220Z,99.90
2023-01-04T07:45:28.338Z,99.90
2023-01-04T07:47:56.555Z,99.90
2023-01-04T07:50:24.761Z,99.90
2023-01-04T07:55:21.433Z,99.90
2023-01-04T07:57:49.941Z,99.90
2023-01-04T08:02:50.523Z,99.90
2023-01-04T08:05:18.868Z,99.90
2023-01-04T08:10:15.579Z,99.90
2023-01-04T08:12:43.797Z,99.90
2023-01-04T08:15:14.850Z,99.90
2023-01-04T08:17:42.967Z,99.90
2023-01-04T08:20:13.280Z,99.90
2023-01-04T08:22:41.686Z,99.90
2023-01-04T08:25:10.920Z,99.90
2023-01-04T08:30:11.405Z,99.90
2023-01-04T08:32:41.580Z,99.90
2023-01-04T08:35:10.293Z,99.90
2023-01-04T08:37:39.876Z,99.90
2023-01-04T08:40:10.854Z,99.90
2023-01-04T08:42:39.507Z,99.90
2023-01-04T08:45:09.693Z,99.90
2023-01-04T08:47:37.932Z,99.90
2023-01-04T08:50:10.619Z,99.90
2023-01-04T08:52:43.132Z,99.90
2023-01-04T08:55:13.995Z,99.90
2023-01-04T09:00:13.635Z,1.00
2023-01-04T09:02:41.891Z,1.00
2023-01-04T09:05:10.594Z,1.00
2023-01-04T09:07:52.120Z,99.90
2023-01-04T09:10:20.362Z,1.00
2023-01-04T09:12:48.626Z,1.00
2023-01-04T09:15:17.870Z,1.00
2023-01-04T09:18:20.554Z,1.00
2023-01-04T09:20:34.986Z,1.00
2023-01-04T09:23:04.534Z,1.00
2023-01-04T09:25:32.805Z,1.00
2023-01-04T09:28:00.983Z,1.00
2023-01-04T09:30:31.775Z,1.00
2023-01-04T09:35:28.406Z,1.00
2023-01-04T09:37:56.945Z,1.00
2023-01-04T09:40:34.461Z,1.00
2023-01-04T09:43:20.971Z,1.00
2023-01-04T09:45:54.807Z,99.90
2023-01-04T09:48:28.060Z,99.90
2023-01-04T09:51:00.960Z,99.90
2023-01-04T09:53:33.268Z,99.90
2023-01-04T09:56:11.034Z,99.90
2023-01-04T09:58:42.336Z,99.90
2023-01-04T10:01:16.538Z,99.90
2023-01-04T10:03:54.521Z,99.90
2023-01-04T10:06:22.852Z,99.90
2023-01-04T10:11:42.271Z,99.90
2023-01-04T10:14:43.270Z,99.90
2023-01-04T10:17:57.487Z,99.90
2023-01-04T10:23:59.718Z,99.90
2023-01-04T10:26:35.999Z,99.90
2023-01-04T10:29:36.370Z,99.90
2023-01-04T10:32:14.223Z,99.90
2023-01-04T10:34:47.198Z,99.90
2023-01-04T10:37:20.349Z,1.00
2023-01-04T10:39:55.072Z,1.00
2023-01-04T10:42:34.989Z,1.00
2023-01-04T10:45:14.829Z,1.00
2023-01-04T10:47:56.145Z,1.00
2023-01-04T10:50:30.708Z,1.00
2023-01-04T10:53:06.161Z,1.00
2023-01-04T10:56:24.441Z,1.00
2023-01-04T10:58:40.157Z,1.00
2023-01-04T11:01:14.298Z,1.00
2023-01-04T11:03:51.995Z,1.00
2023-01-04T11:06:25.809Z,1.00
2023-01-04T11:09:00.506Z,1.00
2023-01-04T11:11:34.973Z,1.00
2023-01-04T11:14:05.197Z,1.00
2023-01-04T11:19:04.256Z,1.00
2023-01-04T11:21:40.908Z,1.00
2023-01-04T11:24:31.529Z,1.00
2023-01-04T11:27:06.365Z,1.00
2023-01-04T11:29:42.755Z,1.00
2023-01-04T11:32:22.200Z,1.00
2023-01-04T11:34:54.214Z,1.00
2023-01-04T11:37:33.888Z,1.00
2023-01-04T11:40:23.438Z,1.00
2023-01-04T11:42:54.504Z,1.00
2023-01-04T11:45:28.578Z,1.00
2023-01-04T11:47:59.176Z,1.00
2023-01-04T11:50:43.244Z,1.00
2023-01-04T11:53:28.819Z,1.00
2023-01-04T11:56:25.964Z,1.00
2023-01-04T11:59:17.728Z,1.00
2023-01-04T12:02:11.188Z,1.00
2023-01-04T12:04:39.516Z,1.00
2023-01-04T12:07:18.889Z,1.00
2023-01-04T12:12:16.185Z,1.00
2023-01-04T12:14:49.773Z,1.00
2023-01-04T12:17:25.210Z,1.00
2023-01-04T12:19:56.360Z,1.00
2023-01-04T12:22:32.923Z,1.00
2023-01-04T12:25:02.662Z,1.00
2023-01-04T12:27:31.072Z,1.00
2023-01-04T12:30:01.642Z,1.00
2023-01-04T12:32:44.206Z,1.00
2023-01-04T12:36:01.452Z,1.00
2023-01-04T12:39:29.894Z,1.00
2023-01-04T12:42:22.215Z,1.00
2023-01-04T12:45:19.558Z,1.00
2023-01-04T12:48:12.515Z,1.00
2023-01-04T12:51:33.243Z,1.00
2023-01-04T12:54:04.696Z,1.00
2023-01-04T12:57:11.231Z,1.00
2023-01-04T12:59:40.296Z,1.00
2023-01-04T13:02:24.648Z,1.00
2023-01-04T13:05:25.620Z,1.00
2023-01-04T13:07:49.446Z,1.00
2023-01-04T13:10:29.917Z,1.00
2023-01-04T13:13:26.365Z,1.00
2023-01-04T13:16:10.745Z,1.00
2023-01-04T13:18:43.688Z,1.00
2023-01-04T13:21:17.027Z,1.00
2023-01-04T13:23:52.738Z,1.00
2023-01-04T13:26:48.330Z,1.00
2023-01-04T13:29:21.325Z,1.00
2023-01-04T13:31:58.410Z,1.00
2023-01-04T13:34:31.905Z,1.00
2023-01-04T13:37:17.222Z,1.00
2023-01-04T13:39:48.533Z,1.00
2023-01-04T13:42:26.759Z,1.00
2023-01-04T13:45:35.268Z,1.00
2023-01-04T13:48:09.249Z,1.00
2023-01-04T13:50:44.082Z,1.00
2023-01-04T13:53:22.443Z,1.00
2023-01-04T13:55:55.746Z,1.00
2023-01-04T13:58:27.233Z,1.00
2023-01-04T14:00:59.428Z,1.00
2023-01-04T14:03:37.767Z,1.00
2023-01-04T14:06:24.136Z,1.00
2023-01-04T14:09:03.306Z,1.00
2023-01-04T14:11:53.014Z,1.00
2023-01-04T14:14:33.150Z,1.00
2023-01-04T14:17:27.080Z,1.00
2023-01-04T14:19:57.753Z,1.00
2023-01-04T14:22:41.518Z,1.00
2023-01-04T14:25:56.344Z,1.00
2023-01-04T14:28:44.859Z,1.00
2023-01-04T14:31:38.313Z,1.00
2023-01-04T14:34:09.261Z,1.00
2023-01-04T14:36:40.111Z,1.00
2023-01-04T14:39:25.169Z,1.00
2023-01-04T14:41:59.725Z,1.00
2023-01-04T14:44:31.969Z,1.00
2023-01-04T14:47:01.652Z,1.00
2023-01-04T14:49:31.465Z,1.00
2023-01-04T14:52:01.626Z,1.00
2023-01-04T14:54:33.574Z,1.00
2023-01-04T14:57:04.077Z,1.00
2023-01-04T14:59:32.521Z,1.00
2023-01-04T15:02:00.917Z,1.00
2023-01-04T15:04:29.369Z,1.00
2023-01-04T15:06:59.776Z,1.00
2023-01-04T15:09:29.692Z,1.00
2023-01-04T15:11:58.795Z,1.00
2023-01-04T15:14:28.412Z,1.00
2023-01-04T15:16:56.563Z,1.00
2023-01-04T15:21:53.610Z,1.00
2023-01-04T15:24:21.988Z,1.00
2023-01-04T15:26:50.147Z,1.00
2023-01-04T15:29:18.449Z,1.00
2023-01-04T15:31:48.004Z,1.00
2023-01-04T15:34:16.261Z,1.00
2023-01-04T15:36:44.403Z,1.00
2023-01-04T15:39:14.590Z,1.00
2023-01-04T15:42:00.735Z,1.00
2023-01-04T15:44:29.259Z,99.90
2023-01-04T15:46:59.553Z,99.90
2023-01-04T15:49:30.447Z,99.90
2023-01-04T15:51:59.269Z,99.90
2023-01-04T15:54:28.118Z,99.90
2023-01-04T15:59:25.702Z,99.90
2023-01-04T16:01:53.880Z,99.90
2023-01-04T16:04:23.549Z,99.90
2023-01-04T16:06:51.741Z,99.90
2023-01-04T16:09:19.975Z,99.90
2023-01-04T16:12:05.872Z,99.90
2023-01-04T16:14:34.063Z,99.90
2023-01-04T16:17:02.187Z,99.90
2023-01-04T16:19:34.211Z,99.90
2023-01-04T16:22:02.359Z,99.90
2023-01-04T16:25:08.604Z,99.90
2023-01-04T16:27:18.904Z,99.90
2023-01-04T16:32:15.912Z,99.90
2023-01-04T16:34:45.453Z,99.90
2023-01-04T16:37:13.639Z,99.90
2023-01-04T16:44:58.658Z,99.90
2023-01-04T16:47:26.904Z,99.90
2023-01-04T16:49:56.391Z,99.90
2023-01-04T16:52:27.273Z,99.90
2023-01-04T16:54:55.551Z,99.90
2023-01-04T16:59:53.046Z,99.90
2023-01-04T17:02:21.457Z,99.90
2023-01-04T17:07:27.373Z,99.90
2023-01-04T17:09:55.529Z,99.90
2023-01-04T17:15:41.971Z,99.90
2023-01-04T17:18:00.723Z,99.90
2023-01-04T17:20:28.836Z,99.90
2023-01-04T17:22:58.800Z,99.90
2023-01-04T17:25:26.961Z,99.90
2023-01-04T17:27:55.340Z,99.90
2023-01-04T17:32:51.992Z,99.90
2023-01-04T17:35:20.115Z,99.90
2023-01-04T17:37:48.474Z,89.60
2023-01-04T17:40:22.878Z,99.90
2023-01-04T17:42:52.182Z,99.90
2023-01-04T17:45:20.834Z,96.30
2023-01-04T17:47:49.256Z,99.90
2023-01-04T17:50:18.159Z,99.90
2023-01-04T17:52:46.688Z,99.90
2023-01-04T17:55:15.281Z,99.90
2023-01-04T17:57:45.519Z,99.90
2023-01-04T18:00:15.848Z,99.90
2023-01-04T18:02:44.995Z,99.90
2023-01-04T18:05:13.607Z,99.90
2023-01-04T18:07:41.769Z,99.90
2023-01-04T18:10:20.787Z,58.10
2023-01-04T18:12:56.479Z,99.90
2023-01-04T18:15:24.660Z,99.90
2023-01-04T18:17:52.825Z,99.00
2023-01-04T18:20:24.885Z,91.80
2023-01-04T18:25:22.127Z,79.80
2023-01-04T18:27:50.539Z,37.40
2023-01-04T18:30:20.264Z,1.00
2023-01-04T18:32:48.446Z,55.50
2023-01-04T18:35:16.898Z,55.50
2023-01-04T18:37:46.316Z,56.90
2023-01-04T18:40:14.520Z,51.60
2023-01-04T18:42:48.162Z,1.00
2023-01-04T18:45:17.179Z,49.40
2023-01-04T18:47:48.120Z,37.90
2023-01-04T18:50:16.590Z,32.10
2023-01-04T18:52:44.999Z,31.90
2023-01-04T18:55:13.314Z,61.70
2023-01-04T18:57:41.674Z,96.70
2023-01-04T19:00:12.334Z,99.90
2023-01-04T19:02:40.782Z,99.90
2023-01-04T19:05:11.575Z,99.90
2023-01-04T19:07:40.471Z,99.90
2023-01-04T19:10:09.950Z,99.90
2023-01-04T19:12:38.863Z,99.90
2023-01-04T19:15:09.329Z,99.90
2023-01-04T19:17:38.718Z,99.90
2023-01-04T19:20:08.138Z,99.90
2023-01-04T19:22:37.997Z,99.90
2023-01-04T19:25:07.693Z,99.90
2023-01-04T19:27:36.231Z,99.90
2023-01-04T19:30:06.073Z,99.90
2023-01-04T19:32:34.251Z,99.90
2023-01-04T19:35:02.433Z,99.90
2023-01-04T19:37:31.206Z,56.90
2023-01-04T19:40:00.672Z,92.30
2023-01-04T19:42:28.781Z,64.20
2023-01-04T19:44:56.890Z,44.80
2023-01-04T19:47:25.040Z,30.80
2023-01-04T19:49:53.173Z,27.50
2023-01-04T19:52:21.288Z,8.30
2023-01-04T19:54:49.478Z,10.30
2023-01-04T19:57:19.244Z,1.90
2023-01-04T20:07:13.151Z,3.50
2023-01-04T20:09:41.364Z,1.00
2023-01-04T20:12:09.681Z,1.00
2023-01-04T20:14:39.383Z,1.00
2023-01-04T20:17:07.935Z,1.00
2023-01-04T20:19:36.125Z,1.00
2023-01-04T20:22:04.255Z,1.00
2023-01-04T20:24:32.808Z,1.00
2023-01-04T20:27:00.958Z,1.00
2023-01-04T20:29:29.161Z,1.00
2023-01-04T20:32:00.603Z,28.10
2023-01-04T20:34:28.920Z,71.50
2023-01-04T20:36:57.117Z,99.90
2023-01-04T20:39:25.368Z,99.90
2023-01-04T20:42:10.848Z,99.90
2023-01-04T20:44:39.511Z,99.90
2023-01-04T20:47:09.030Z,99.90
2023-01-04T20:49:37.233Z,99.90
2023-01-04T20:52:06.138Z,99.90
2023-01-04T20:54:34.331Z,99.90
2023-01-04T20:57:02.454Z,99.90
2023-01-04T20:59:30.791Z,99.90
2023-01-04T21:01:59.174Z,99.90
2023-01-04T21:04:28.767Z,99.90
2023-01-04T21:06:56.825Z,99.90
2023-01-04T21:09:24.958Z,99.90
2023-01-04T21:11:56.107Z,99.90
2023-01-04T21:14:26.129Z,99.90
2023-01-04T21:16:54.250Z,1.00
2023-01-04T21:19:23.234Z,1.00
2023-01-04T21:21:52.925Z,1.00
2023-01-04T21:24:21.090Z,1.00
2023-01-04T21:26:49.234Z,1.00
2023-01-04T21:29:17.379Z,1.00
2023-01-04T21:31:45.559Z,1.00
2023-01-04T21:34:17.079Z,1.00
2023-01-04T21:39:17.580Z,1.00
2023-01-04T21:41:48.217Z,1.00
2023-01-04T21:44:16.691Z,1.00
2023-01-04T21:46:44.975Z,1.00
2023-01-04T21:49:13.318Z,1.00
2023-01-04T21:51:41.483Z,1.00
2023-01-04T21:54:09.672Z,1.00
2023-01-04T21:56:39.210Z,1.00
2023-01-04T21:59:07.385Z,1.00
2023-01-04T22:01:35.967Z,1.00
2023-01-04T22:04:04.782Z,1.00
2023-01-04T22:06:37.275Z,1.00
2023-01-04T22:09:05.654Z,1.00
2023-01-04T22:11:33.813Z,1.00
2023-01-04T22:14:03.416Z,1.00
2023-01-04T22:16:32.677Z,1.00
2023-01-04T22:19:00.868Z,1.00
2023-01-04T22:21:29.038Z,1.00
2023-01-04T22:23:57.453Z,1.00
2023-01-04T22:26:25.632Z,1.00
2023-01-04T22:28:53.800Z,99.90
2023-01-04T22:31:23.346Z,99.90
2023-01-04T22:33:51.478Z,99.90
2023-01-04T22:36:23.193Z,99.90
2023-01-04T22:38:52.448Z,99.90
2023-01-04T22:41:22.395Z,99.90
2023-01-04T22:43:56.589Z,99.90
2023-01-04T22:46:27.491Z,99.90
2023-01-04T22:48:56.038Z,99.90
2023-01-04T22:51:27.530Z,99.90
2023-01-04T22:53:56.765Z,99.90
2023-01-04T22:56:25.797Z,99.90
2023-01-04T22:58:56.192Z,99.90
2023-01-04T23:01:28.574Z,99.90
2023-01-04T23:03:58.282Z,99.90
2023-01-04T23:06:27.689Z,99.90
2023-01-04T23:08:57.638Z,99.90
2023-01-04T23:11:27.073Z,99.90
2023-01-04T23:13:55.888Z,99.90
2023-01-04T23:16:31.811Z,99.90
2023-01-04T23:19:00.820Z,99.90
2023-01-04T23:21:29.132Z,99.90
2023-01-04T23:23:57.292Z,99.90
2023-01-04T23:26:28.106Z,99.90
2023-01-04T23:28:56.564Z,99.90
2023-01-04T23:31:29.868Z,99.90
2023-01-04T23:34:00.294Z,99.90
2023-01-04T23:36:31.141Z,99.90
2023-01-04T23:39:02.019Z,99.90
2023-01-04T23:44:26.929Z,99.90
2023-01-04T23:46:58.039Z,99.90
2023-01-04T23:49:28.916Z,99.90
2023-01-04T23:51:57.538Z,99.90
2023-01-04T23:54:26.981Z,99.90
2023-01-04T23:56:56.186Z,99.90
2023-01-04T23:59:26.022Z,99.90
